createdAt,value
2023-01-08T00:01:23.395Z,97582.75
2023-01-08T00:03:26.583Z,97580.91
2023-01-08T00:05:29.936Z,97577.44
2023-01-08T00:07:33.256Z,97581.75
2023-01-08T00:09:36.351Z,97587.75
2023-01-08T00:11:39.411Z,97580.19
2023-01-08T00:13:42.494Z,97581.91
2023-01-08T00:15:45.546Z,97584.56
2023-01-08T00:17:49.908Z,97576.00
2023-01-08T00:19:52.947Z,97567.50
2023-01-08T00:21:56.020Z,97563.34
2023-01-08T00:23:59.159Z,97552.91
2023-01-08T00:26:02.735Z,97549.59
2023-01-08T00:28:06.005Z,97555.59
2023-01-08T00:30:10.212Z,97546.16
2023-01-08T00:32:13.432Z,97541.06
2023-01-08T00:34:17.861Z,97545.25
2023-01-08T00:36:21.152Z,97542.66
2023-01-08T00:38:27.035Z,97540.25
2023-01-08T00:40:30.157Z,97549.84
2023-01-08T00:42:33.201Z,97544.69
2023-01-08T00:44:36.216Z,97547.25
2023-01-08T00:46:39.282Z,97542.19
2023-01-08T00:48:42.323Z,97552.59
2023-01-08T00:50:46.756Z,97549.06
2023-01-08T00:52:49.760Z,97537.91
2023-01-08T00:54:52.858Z,97535.50
2023-01-08T00:56:56.081Z,97516.59
2023-01-08T00:58:59.191Z,97508.84
2023-01-08T01:01:02.438Z,97508.84
2023-01-08T01:03:05.476Z,97501.09
2023-01-08T01:05:10.744Z,97501.09
2023-01-08T01:07:15.200Z,97502.75
2023-01-08T01:09:18.229Z,97496.69
2023-01-08T01:11:23.567Z,97501.84
2023-01-08T01:13:26.950Z,97501.94
2023-01-08T01:15:30.008Z,97503.78
2023-01-08T01:17:33.021Z,97502.00
2023-01-08T01:19:36.073Z,97499.34
2023-01-08T01:21:39.156Z,97501.94
2023-01-08T01:23:43.498Z,97493.34
2023-01-08T01:25:46.517Z,97490.88
2023-01-08T01:27:49.514Z,97485.94
2023-01-08T01:29:52.753Z,97491.84
2023-01-08T01:31:55.807Z,97498.78
2023-01-08T01:33:59.112Z,97498.78
2023-01-08T01:36:03.027Z,97501.38
2023-01-08T01:38:06.137Z,97509.09
2023-01-08T01:40:11.837Z,97511.69
2023-01-08T01:42:36.506Z,97518.59
2023-01-08T01:44:42.794Z,97520.44
2023-01-08T01:46:45.948Z,97519.59
2023-01-08T01:48:50.634Z,97506.78
2023-01-08T01:50:55.154Z,97509.28
2023-01-08T01:53:02.018Z,97512.84
2023-01-08T01:55:06.263Z,97522.28
2023-01-08T01:57:10.680Z,97514.53
2023-01-08T01:59:14.507Z,97516.16
2023-01-08T02:01:17.890Z,97511.00
2023-01-08T02:03:23.347Z,97511.84
2023-01-08T02:05:31.532Z,97513.50
2023-01-08T02:07:40.527Z,97507.50
2023-01-08T02:09:49.892Z,97507.25
2023-01-08T02:12:13.008Z,97511.59
2023-01-08T02:14:23.863Z,97500.44
2023-01-08T02:16:33.527Z,97501.38
2023-01-08T02:18:41.772Z,97499.59
2023-01-08T02:20:48.964Z,97491.84
2023-01-08T02:23:18.058Z,97493.44
2023-01-08T02:25:31.475Z,97478.78
2023-01-08T02:27:37.237Z,97481.34
2023-01-08T02:29:40.766Z,97475.19
2023-01-08T02:31:44.726Z,97472.63
2023-01-08T02:33:48.111Z,97470.78
2023-01-08T02:35:55.630Z,97463.69
2023-01-08T02:37:59.066Z,97458.41
2023-01-08T02:40:08.530Z,97454.84
2023-01-08T02:42:15.413Z,97456.53
2023-01-08T02:44:23.170Z,97453.94
2023-01-08T02:46:31.815Z,97441.75
2023-01-08T02:48:37.898Z,97425.34
2023-01-08T02:50:44.341Z,97420.09
2023-01-08T02:52:57.116Z,97415.75
2023-01-08T02:55:03.833Z,97425.91
2023-01-08T02:57:11.253Z,97415.41
2023-01-08T02:59:16.291Z,97413.72
2023-01-08T03:01:24.211Z,97413.72
2023-01-08T03:03:29.458Z,97412.09
2023-01-08T03:05:35.133Z,97406.16
2023-01-08T03:07:38.820Z,97410.41
2023-01-08T03:09:42.419Z,97401.94
2023-01-08T03:11:48.566Z,97401.84
2023-01-08T03:13:58.310Z,97400.81
2023-01-08T03:16:05.407Z,97401.56
2023-01-08T03:18:12.733Z,97403.22
2023-01-08T03:20:18.437Z,97398.91
2023-01-08T03:22:22.904Z,97397.16
2023-01-08T03:24:29.501Z,97400.47
2023-01-08T03:26:34.035Z,97407.31
2023-01-08T03:28:40.462Z,97396.78
2023-01-08T03:30:45.107Z,97397.59
2023-01-08T03:32:50.283Z,97397.53
2023-01-08T03:34:57.307Z,97395.66
2023-01-08T03:37:04.394Z,97397.44
2023-01-08T03:39:12.275Z,97395.66
2023-01-08T03:41:20.057Z,97389.69
2023-01-08T03:43:23.423Z,97389.69
2023-01-08T03:45:29.004Z,97380.34
2023-01-08T03:47:33.450Z,97379.44
2023-01-08T03:49:37.950Z,97382.84
2023-01-08T03:51:43.879Z,97378.63
2023-01-08T03:53:47.796Z,97369.19
2023-01-08T03:55:50.966Z,97376.84
2023-01-08T03:57:54.145Z,97373.28
2023-01-08T03:59:57.291Z,97373.19
2023-01-08T04:02:00.509Z,97366.34
2023-01-08T04:04:04.276Z,97361.00
2023-01-08T04:06:07.769Z,97361.16
2023-01-08T04:08:12.063Z,97351.56
2023-01-08T04:10:15.110Z,97355.81
2023-01-08T04:12:18.127Z,97350.47
2023-01-08T04:14:21.237Z,97355.63
2023-01-08T04:16:24.300Z,97353.78
2023-01-08T04:18:27.439Z,97357.94
2023-01-08T04:20:30.587Z,97353.41
2023-01-08T04:22:33.646Z,97350.75
2023-01-08T04:24:38.100Z,97348.94
2023-01-08T04:26:41.099Z,97347.16
2023-01-08T04:28:44.095Z,97356.59
2023-01-08T04:30:47.281Z,97352.25
2023-01-08T04:32:50.237Z,97346.06
2023-01-08T04:34:53.705Z,97349.38
2023-01-08T04:36:57.051Z,97348.28
2023-01-08T04:39:00.089Z,97342.91
2023-01-08T04:41:04.620Z,97352.31
2023-01-08T04:43:07.634Z,97352.31
2023-01-08T04:45:11.399Z,97358.13
2023-01-08T04:47:14.416Z,97363.13
2023-01-08T04:49:17.405Z,97351.88
2023-01-08T04:51:21.525Z,97352.59
2023-01-08T04:53:24.454Z,97355.94
2023-01-08T04:55:27.466Z,97358.25
2023-01-08T04:57:31.891Z,97355.56
2023-01-08T04:59:34.976Z,97355.38
2023-01-08T05:01:38.072Z,97355.28
2023-01-08T05:03:41.632Z,97359.44
2023-01-08T05:05:44.629Z,97363.63
2023-01-08T05:07:47.671Z,97361.75
2023-01-08T05:09:50.664Z,97364.16
2023-01-08T05:11:53.841Z,97366.75
2023-01-08T05:13:58.175Z,97367.69
2023-01-08T05:16:02.046Z,97379.69
2023-01-08T05:18:06.839Z,97381.44
2023-01-08T05:20:10.888Z,97379.78
2023-01-08T05:22:14.007Z,97374.88
2023-01-08T05:24:17.266Z,97374.94
2023-01-08T05:26:20.346Z,97378.22
2023-01-08T05:28:25.687Z,97387.72
2023-01-08T05:30:30.912Z,97380.22
2023-01-08T05:32:33.992Z,97388.06
2023-01-08T05:34:37.065Z,97387.53
2023-01-08T05:36:40.036Z,97397.78
2023-01-08T05:38:43.149Z,97398.91
2023-01-08T05:40:46.241Z,97402.66
2023-01-08T05:42:49.202Z,97394.81
2023-01-08T05:44:52.239Z,97387.63
2023-01-08T05:46:57.025Z,97393.38
2023-01-08T05:49:00.071Z,97389.75
2023-01-08T05:51:03.374Z,97392.06
2023-01-08T05:53:08.388Z,97388.38
2023-01-08T05:55:11.680Z,97378.56
2023-01-08T05:57:14.715Z,97389.44
2023-01-08T05:59:17.764Z,97384.94
2023-01-08T06:01:20.868Z,97384.66
2023-01-08T06:03:25.575Z,97386.19
2023-01-08T06:05:28.726Z,97394.72
2023-01-08T06:07:31.799Z,97394.72
2023-01-08T06:09:34.961Z,97401.25
2023-01-08T06:11:38.010Z,97402.75
2023-01-08T06:13:43.329Z,97410.94
2023-01-08T06:15:46.460Z,97414.91
2023-01-08T06:17:49.721Z,97413.88
2023-01-08T06:19:54.110Z,97418.03
2023-01-08T06:21:57.620Z,97422.50
2023-01-08T06:24:00.717Z,97418.75
2023-01-08T06:26:04.953Z,97416.66
2023-01-08T06:28:08.467Z,97416.16
2023-01-08T06:30:12.123Z,97411.84
2023-01-08T06:32:15.188Z,97419.22
2023-01-08T06:34:18.247Z,97408.56
2023-01-08T06:36:22.788Z,97404.75
2023-01-08T06:38:25.871Z,97401.78
2023-01-08T06:40:28.968Z,97408.09
2023-01-08T06:42:32.082Z,97407.69
2023-01-08T06:44:35.168Z,97407.19
2023-01-08T06:46:40.357Z,97411.06
2023-01-08T06:48:43.405Z,97405.56
2023-01-08T06:50:46.417Z,97397.41
2023-01-08T06:52:55.024Z,97409.75
2023-01-08T06:54:58.127Z,97404.03
2023-01-08T06:57:01.069Z,97400.00
2023-01-08T06:59:04.523Z,97393.34
2023-01-08T07:01:07.800Z,97403.13
2023-01-08T07:03:10.884Z,97405.16
2023-01-08T07:05:13.867Z,97406.41
2023-01-08T07:07:17.014Z,97409.41
2023-01-08T07:09:21.559Z,97409.94
2023-01-08T07:11:24.576Z,97410.44
2023-01-08T07:13:27.662Z,97407.63
2023-01-08T07:15:30.655Z,97409.91
2023-01-08T07:17:33.839Z,97410.78
2023-01-08T07:19:36.793Z,97409.09
2023-01-08T07:21:39.741Z,97401.63
2023-01-08T07:23:42.816Z,97412.50
2023-01-08T07:25:47.450Z,97412.44
2023-01-08T07:27:50.566Z,97415.53
2023-01-08T07:29:55.946Z,97415.94
2023-01-08T07:31:58.944Z,97421.66
2023-01-08T07:34:02.004Z,97423.19
2023-01-08T07:36:06.714Z,97411.38
2023-01-08T07:38:09.769Z,97408.34
2023-01-08T07:40:13.423Z,97414.75
2023-01-08T07:42:17.826Z,97413.41
2023-01-08T07:44:20.813Z,97419.09
2023-01-08T07:46:23.944Z,97424.06
2023-01-08T07:48:27.161Z,97423.84
2023-01-08T07:50:30.230Z,97427.03
2023-01-08T07:52:33.287Z,97429.44
2023-01-08T07:54:36.357Z,97426.72
2023-01-08T07:56:39.445Z,97421.53
2023-01-08T07:58:43.982Z,97422.25
2023-01-08T08:00:47.114Z,97423.56
2023-01-08T08:02:50.523Z,97423.34
2023-01-08T08:04:53.810Z,97420.75
2023-01-08T08:06:56.858Z,97414.84
2023-01-08T08:09:00.441Z,97410.34
2023-01-08T08:11:03.477Z,97416.41
2023-01-08T08:13:06.773Z,97411.69
2023-01-08T08:15:12.329Z,97411.81
2023-01-08T08:17:15.371Z,97405.78
2023-01-08T08:19:18.392Z,97405.78
2023-01-08T08:21:21.475Z,97415.00
2023-01-08T08:23:24.755Z,97402.00
2023-01-08T08:25:27.833Z,97415.13
2023-01-08T08:27:30.848Z,97406.28
2023-01-08T08:29:33.975Z,97407.22
2023-01-08T08:31:38.542Z,97414.91
2023-01-08T08:33:41.658Z,97402.84
2023-01-08T08:35:49.704Z,97404.59
2023-01-08T08:37:52.698Z,97410.53
2023-01-08T08:39:55.653Z,97412.94
2023-01-08T08:41:58.866Z,97403.13
2023-01-08T08:44:01.875Z,97397.22
2023-01-08T08:46:05.077Z,97402.19
2023-01-08T08:48:11.217Z,97394.03
2023-01-08T08:50:14.312Z,97400.91
2023-01-08T08:52:17.382Z,97396.50
2023-01-08T08:54:20.455Z,97396.28
2023-01-08T08:56:23.450Z,97390.88
2023-01-08T08:58:26.657Z,97387.56
2023-01-08T09:00:29.679Z,97382.13
2023-01-08T09:02:32.843Z,97381.09
2023-01-08T09:04:37.758Z,97380.75
2023-01-08T09:06:40.954Z,97377.81
2023-01-08T09:08:44.212Z,97380.19
2023-01-08T09:10:47.224Z,97381.81
2023-01-08T09:12:50.624Z,97382.56
2023-01-08T09:14:54.818Z,97384.19
2023-01-08T09:16:57.911Z,97380.31
2023-01-08T09:19:00.884Z,97381.88
2023-01-08T09:21:09.459Z,97386.97
2023-01-08T09:23:12.508Z,97381.66
2023-01-08T09:25:15.679Z,97390.50
2023-01-08T09:27:18.815Z,97387.06
2023-01-08T09:29:21.966Z,97383.50
2023-01-08T09:31:25.080Z,97391.19
2023-01-08T09:33:28.108Z,97373.00
2023-01-08T09:35:31.174Z,97378.78
2023-01-08T09:37:35.607Z,97381.03
2023-01-08T09:39:41.160Z,97388.03
2023-01-08T09:41:47.652Z,97375.03
2023-01-08T09:43:52.846Z,97375.59
2023-01-08T09:45:57.701Z,97387.34
2023-01-08T09:48:05.001Z,97379.31
2023-01-08T09:50:12.535Z,97374.56
2023-01-08T09:52:16.600Z,97371.63
2023-01-08T09:54:21.876Z,97368.91
2023-01-08T09:56:25.254Z,97380.75
2023-01-08T09:58:35.211Z,97377.22
2023-01-08T10:00:38.297Z,97374.38
2023-01-08T10:02:42.191Z,97367.16
2023-01-08T10:04:46.157Z,97361.81
2023-01-08T10:06:52.596Z,97364.44
2023-01-08T10:08:55.603Z,97362.63
2023-01-08T10:11:00.231Z,97362.75
2023-01-08T10:13:04.036Z,97362.88
2023-01-08T10:15:12.433Z,97356.63
2023-01-08T10:17:23.365Z,97363.47
2023-01-08T10:19:26.457Z,97363.09
2023-01-08T10:21:33.711Z,97360.38
2023-01-08T10:23:36.827Z,97366.78
2023-01-08T10:25:53.683Z,97363.81
2023-01-08T10:28:02.009Z,97356.84
2023-01-08T10:30:09.149Z,97362.06
2023-01-08T10:32:16.325Z,97362.53
2023-01-08T10:34:33.278Z,97358.38
2023-01-08T10:36:40.821Z,97353.16
2023-01-08T10:38:51.089Z,97345.97
2023-01-08T10:40:54.410Z,97339.56
2023-01-08T10:43:05.877Z,97345.63
2023-01-08T10:45:21.548Z,97339.31
2023-01-08T10:47:25.146Z,97336.03
2023-01-08T10:49:33.186Z,97334.94
2023-01-08T10:51:36.308Z,97337.41
2023-01-08T10:53:41.244Z,97334.69
2023-01-08T10:55:44.709Z,97333.88
2023-01-08T10:57:55.223Z,97329.75
2023-01-08T10:59:59.718Z,97327.03
2023-01-08T11:02:03.004Z,97323.97
2023-01-08T11:04:07.362Z,97323.75
2023-01-08T11:06:14.961Z,97322.66
2023-01-08T11:08:21.916Z,97325.25
2023-01-08T11:10:27.294Z,97319.81
2023-01-08T11:12:36.458Z,97319.81
2023-01-08T11:14:39.990Z,97325.75
2023-01-08T11:16:44.891Z,97320.41
2023-01-08T11:18:49.188Z,97315.22
2023-01-08T11:20:53.558Z,97306.41
2023-01-08T11:23:05.787Z,97312.47
2023-01-08T11:25:14.512Z,97300.03
2023-01-08T11:27:22.148Z,97306.91
2023-01-08T11:29:31.490Z,97299.34
2023-01-08T11:31:38.331Z,97301.94
2023-01-08T11:33:43.770Z,97292.09
2023-01-08T11:35:51.231Z,97294.94
2023-01-08T11:37:58.408Z,97286.31
2023-01-08T11:40:01.977Z,97290.31
2023-01-08T11:42:15.502Z,97286.75
2023-01-08T11:44:29.499Z,97284.03
2023-01-08T11:46:36.550Z,97281.19
2023-01-08T11:48:51.943Z,97263.63
2023-01-08T11:51:17.870Z,97260.66
2023-01-08T11:53:27.313Z,97253.78
2023-01-08T11:55:47.483Z,97254.63
2023-01-08T11:58:00.534Z,97238.41
2023-01-08T12:00:18.326Z,97234.38
2023-01-08T12:02:25.600Z,97229.34
2023-01-08T12:04:49.878Z,97221.03
2023-01-08T12:06:58.817Z,97223.56
2023-01-08T12:09:12.155Z,97228.28
2023-01-08T12:11:19.559Z,97226.41
2023-01-08T12:13:33.767Z,97222.31
2023-01-08T12:15:43.033Z,97217.44
2023-01-08T12:18:05.811Z,97214.72
2023-01-08T12:20:21.031Z,97214.72
2023-01-08T12:22:35.019Z,97217.19
2023-01-08T12:24:57.477Z,97215.41
2023-01-08T12:27:06.304Z,97203.69
2023-01-08T12:29:22.724Z,97205.22
2023-01-08T12:32:09.634Z,97196.72
2023-01-08T12:34:14.334Z,97196.25
2023-01-08T12:36:21.417Z,97184.44
2023-01-08T12:38:29.027Z,97184.19
2023-01-08T12:40:35.072Z,97189.00
2023-01-08T12:42:46.713Z,97191.50
2023-01-08T12:44:50.208Z,97185.69
2023-01-08T12:46:55.077Z,97193.63
2023-01-08T12:48:58.727Z,97179.78
2023-01-08T12:51:05.545Z,97191.88
2023-01-08T12:53:16.248Z,97178.59
2023-01-08T12:55:28.507Z,97188.03
2023-01-08T12:57:38.908Z,97180.22
2023-01-08T12:59:47.477Z,97181.63
2023-01-08T13:01:55.536Z,97181.88
2023-01-08T13:03:59.889Z,97180.09
2023-01-08T13:06:10.452Z,97185.31
2023-01-08T13:08:30.603Z,97181.50
2023-01-08T13:10:37.053Z,97178.50
2023-01-08T13:12:43.711Z,97175.22
2023-01-08T13:14:49.668Z,97155.28
2023-01-08T13:17:04.195Z,97160.13
2023-01-08T13:19:08.701Z,97160.81
2023-01-08T13:21:13.059Z,97166.75
2023-01-08T13:23:27.171Z,97166.16
2023-01-08T13:25:35.347Z,97157.38
2023-01-08T13:27:38.499Z,97152.72
2023-01-08T13:29:43.489Z,97154.00
2023-01-08T13:31:47.018Z,97155.13
2023-01-08T13:33:52.703Z,97156.50
2023-01-08T13:36:15.405Z,97159.13
2023-01-08T13:38:19.870Z,97149.22
2023-01-08T13:40:53.780Z,97148.78
2023-01-08T13:43:06.714Z,97148.66
2023-01-08T13:45:14.361Z,97141.78
2023-01-08T13:47:20.811Z,97137.50
2023-01-08T13:49:29.751Z,97133.13
2023-01-08T13:51:41.247Z,97130.25
2023-01-08T13:53:49.011Z,97132.22
2023-01-08T13:55:57.550Z,97122.72
2023-01-08T13:58:03.479Z,97121.53
2023-01-08T14:00:09.999Z,97119.34
2023-01-08T14:02:25.460Z,97111.66
2023-01-08T14:04:28.873Z,97115.66
2023-01-08T14:06:35.045Z,97111.69
2023-01-08T14:08:38.326Z,97112.13
2023-01-08T14:10:41.665Z,97106.38
2023-01-08T14:12:46.618Z,97104.09
2023-01-08T14:14:52.179Z,97103.81
2023-01-08T14:16:57.011Z,97107.09
2023-01-08T14:19:02.546Z,97115.78
2023-01-08T14:21:05.970Z,97111.50
2023-01-08T14:23:13.260Z,97099.41
2023-01-08T14:25:21.863Z,97095.72
2023-01-08T14:27:26.983Z,97093.38
2023-01-08T14:29:34.733Z,97100.81
2023-01-08T14:31:37.974Z,97096.84
2023-01-08T14:33:42.325Z,97094.50
2023-01-08T14:35:45.417Z,97093.94
2023-01-08T14:37:48.787Z,97087.06
2023-01-08T14:39:54.716Z,97086.25
2023-01-08T14:42:19.556Z,97090.66
2023-01-08T14:44:29.192Z,97095.03
2023-01-08T14:46:37.513Z,97088.59
2023-01-08T14:48:43.248Z,97086.25
2023-01-08T14:50:58.822Z,97085.41
2023-01-08T14:53:06.952Z,97087.34
2023-01-08T14:55:15.061Z,97086.53
2023-01-08T14:57:18.767Z,97083.09
2023-01-08T14:59:23.236Z,97081.03
2023-01-08T15:01:28.140Z,97080.84
2023-01-08T15:03:37.987Z,97073.88
2023-01-08T15:05:49.949Z,97065.06
2023-01-08T15:08:01.680Z,97059.84
2023-01-08T15:10:05.367Z,97053.78
2023-01-08T15:12:23.435Z,97059.56
2023-01-08T15:14:27.947Z,97050.09
2023-01-08T15:16:33.331Z,97043.47
2023-01-08T15:18:46.142Z,97039.22
2023-01-08T15:20:49.406Z,97043.75
2023-01-08T15:22:52.637Z,97035.09
2023-01-08T15:24:59.348Z,97032.63
2023-01-08T15:27:09.673Z,97034.78
2023-01-08T15:29:19.665Z,97033.00
2023-01-08T15:31:27.720Z,97027.66
2023-01-08T15:33:30.854Z,97015.53
2023-01-08T15:35:35.309Z,97014.72
2023-01-08T15:37:38.413Z,97012.66
2023-01-08T15:39:41.569Z,97014.56
2023-01-08T15:42:02.401Z,97013.22
2023-01-08T15:44:05.899Z,97004.97
2023-01-08T15:46:10.620Z,96999.03
2023-01-08T15:48:13.944Z,97002.63
2023-01-08T15:50:17.244Z,96994.94
2023-01-08T15:52:23.336Z,96981.16
2023-01-08T15:54:27.047Z,96986.94
2023-01-08T15:56:30.152Z,96986.38
2023-01-08T15:58:33.284Z,96987.19
2023-01-08T16:00:36.289Z,96984.72
2023-01-08T16:02:44.922Z,96980.34
2023-01-08T16:04:53.203Z,96973.88
2023-01-08T16:06:56.353Z,96979.22
2023-01-08T16:09:01.616Z,96975.09
2023-01-08T16:11:04.742Z,96977.84
2023-01-08T16:13:10.215Z,96977.84
2023-01-08T16:15:16.129Z,96976.06
2023-01-08T16:17:19.304Z,96965.50
2023-01-08T16:19:24.910Z,96974.00
2023-01-08T16:21:28.189Z,96971.94
2023-01-08T16:23:31.524Z,96967.56
2023-01-08T16:25:36.323Z,96962.34
2023-01-08T16:27:40.334Z,96971.94
2023-01-08T16:29:43.335Z,96963.03
2023-01-08T16:31:47.592Z,96961.38
2023-01-08T16:33:51.220Z,96962.34
2023-01-08T16:35:58.106Z,96955.63
2023-01-08T16:38:01.217Z,96951.34
2023-01-08T16:40:04.638Z,96945.19
2023-01-08T16:42:11.971Z,96953.16
2023-01-08T16:44:20.185Z,96935.00
2023-01-08T16:46:23.607Z,96935.16
2023-01-08T16:48:26.680Z,96933.34
2023-01-08T16:50:30.013Z,96936.09
2023-01-08T16:52:33.114Z,96924.97
2023-01-08T16:54:36.437Z,96929.47
2023-01-08T16:56:39.633Z,96921.53
2023-01-08T16:58:44.298Z,96918.09
2023-01-08T17:00:48.444Z,96919.75
2023-01-08T17:02:51.618Z,96910.00
2023-01-08T17:04:54.719Z,96904.53
2023-01-08T17:06:57.828Z,96905.34
2023-01-08T17:09:01.099Z,96890.22
2023-01-08T17:11:08.727Z,96890.09
2023-01-08T17:13:11.813Z,96890.81
2023-01-08T17:15:16.610Z,96886.94
2023-01-08T17:17:19.892Z,96887.50
2023-01-08T17:19:23.262Z,96880.38
2023-01-08T17:21:26.680Z,96879.25
2023-01-08T17:23:30.296Z,96868.69
2023-01-08T17:25:33.597Z,96868.53
2023-01-08T17:27:37.054Z,96871.16
2023-01-08T17:29:40.444Z,96866.66
2023-01-08T17:31:50.842Z,96870.59
2023-01-08T17:33:54.620Z,96866.09
2023-01-08T17:35:58.828Z,96862.50
2023-01-08T17:38:02.384Z,96867.72
2023-01-08T17:40:06.372Z,96866.09
2023-01-08T17:42:27.017Z,96858.69
2023-01-08T17:44:31.124Z,96865.53
2023-01-08T17:46:35.613Z,96853.44
2023-01-08T17:48:41.901Z,96850.56
2023-01-08T17:50:45.366Z,96854.13
2023-01-08T17:52:48.799Z,96856.06
2023-01-08T17:54:52.876Z,96849.88
2023-01-08T17:56:55.953Z,96855.91
2023-01-08T17:58:59.223Z,96854.25
2023-01-08T18:01:02.378Z,96850.97
2023-01-08T18:03:05.625Z,96853.44
2023-01-08T18:05:10.793Z,96846.56
2023-01-08T18:07:14.481Z,96846.84
2023-01-08T18:09:17.593Z,96845.22
2023-01-08T18:11:20.678Z,96839.28
2023-01-08T18:13:23.864Z,96840.28
2023-01-08T18:15:27.108Z,96836.13
2023-01-08T18:17:31.351Z,96831.88
2023-01-08T18:19:34.645Z,96830.13
2023-01-08T18:21:39.191Z,96814.03
2023-01-08T18:23:42.305Z,96819.53
2023-01-08T18:25:45.453Z,96816.91
2023-01-08T18:27:48.728Z,96815.28
2023-01-08T18:29:54.614Z,96810.06
2023-01-08T18:31:59.566Z,96804.59
2023-01-08T18:34:03.806Z,96799.09
2023-01-08T18:36:09.591Z,96789.63
2023-01-08T18:38:15.903Z,96786.22
2023-01-08T18:40:19.363Z,96777.53
2023-01-08T18:42:28.757Z,96779.19
2023-01-08T18:44:32.023Z,96776.44
2023-01-08T18:46:35.323Z,96769.44
2023-01-08T18:48:38.860Z,96765.88
2023-01-08T18:50:42.131Z,96771.78
2023-01-08T18:52:45.440Z,96775.91
2023-01-08T18:54:50.074Z,96772.22
2023-01-08T18:56:53.223Z,96781.66
2023-01-08T18:58:56.704Z,96778.91
2023-01-08T19:01:04.268Z,96787.59
2023-01-08T19:03:09.331Z,96782.38
2023-01-08T19:05:12.534Z,96773.31
2023-01-08T19:07:15.906Z,96772.91
2023-01-08T19:09:18.985Z,96773.84
2023-01-08T19:11:23.406Z,96773.84
2023-01-08T19:13:26.520Z,96771.66
2023-01-08T19:15:29.718Z,96772.91
2023-01-08T19:17:33.585Z,96761.09
2023-01-08T19:19:36.927Z,96768.22
2023-01-08T19:21:40.025Z,96761.78
2023-01-08T19:23:43.185Z,96763.13
2023-01-08T19:25:46.411Z,96762.44
2023-01-08T19:27:50.979Z,96757.25
2023-01-08T19:29:54.221Z,96758.31
2023-01-08T19:31:57.384Z,96756.84
2023-01-08T19:34:00.989Z,96740.63
2023-01-08T19:36:08.547Z,96739.28
2023-01-08T19:38:11.686Z,96735.13
2023-01-08T19:40:15.040Z,96726.09
2023-01-08T19:42:35.798Z,96726.25
2023-01-08T19:44:40.275Z,96721.16
2023-01-08T19:46:43.432Z,96717.03
2023-01-08T19:48:46.534Z,96708.41
2023-01-08T19:50:50.015Z,96705.81
2023-01-08T19:52:53.163Z,96700.72
2023-01-08T19:54:57.679Z,96699.06
2023-01-08T19:57:00.830Z,96701.81
2023-01-08T19:59:04.824Z,96695.09
2023-01-08T20:01:14.030Z,96693.59
2023-01-08T20:03:19.955Z,96700.44
2023-01-08T20:05:23.163Z,96695.34
2023-01-08T20:07:26.371Z,96692.88
2023-01-08T20:09:29.898Z,96694.69
2023-01-08T20:11:33.370Z,96684.38
2023-01-08T20:13:37.144Z,96688.66
2023-01-08T20:15:40.395Z,96689.47
2023-01-08T20:17:44.892Z,96690.66
2023-01-08T20:19:50.092Z,96680.38
2023-01-08T20:21:53.354Z,96678.88
2023-01-08T20:23:59.160Z,96681.63
2023-01-08T20:26:03.360Z,96673.38
2023-01-08T20:28:06.630Z,96679.41
2023-01-08T20:30:11.021Z,96675.16
2023-01-08T20:32:14.152Z,96681.03
2023-01-08T20:34:18.790Z,96677.75
2023-01-08T20:36:23.770Z,96675.88
2023-01-08T20:38:26.941Z,96670.66
2023-01-08T20:40:30.050Z,96661.50
2023-01-08T20:42:34.478Z,96669.03
2023-01-08T20:44:37.837Z,96665.50
2023-01-08T20:46:41.541Z,96669.03
2023-01-08T20:48:48.443Z,96654.41
2023-01-08T20:50:57.119Z,96656.03
2023-01-08T20:53:00.420Z,96662.88
2023-01-08T20:55:04.075Z,96658.22
2023-01-08T20:57:07.156Z,96657.00
2023-01-08T20:59:10.415Z,96652.59
2023-01-08T21:01:16.336Z,96633.41
2023-01-08T21:03:19.463Z,96646.44
2023-01-08T21:05:22.606Z,96636.97
2023-01-08T21:07:29.841Z,96633.41
2023-01-08T21:09:32.867Z,96632.59
2023-01-08T21:11:37.011Z,96628.22
2023-01-08T21:13:40.589Z,96628.22
2023-01-08T21:15:43.679Z,96626.97
2023-01-08T21:17:46.695Z,96632.72
2023-01-08T21:19:49.729Z,96623.78
2023-01-08T21:21:52.834Z,96630.66
2023-01-08T21:23:57.901Z,96630.53
2023-01-08T21:26:02.733Z,96620.91
2023-01-08T21:28:05.942Z,96611.19
2023-01-08T21:30:10.451Z,96603.53
2023-01-08T21:32:13.528Z,96597.59
2023-01-08T21:34:16.958Z,96601.34
2023-01-08T21:36:22.305Z,96596.41
2023-01-08T21:38:25.544Z,96601.22
2023-01-08T21:40:30.039Z,96596.41
2023-01-08T21:42:50.709Z,96586.81
2023-01-08T21:45:11.282Z,96593.41
2023-01-08T21:47:16.373Z,96589.00
2023-01-08T21:49:19.458Z,96584.59
2023-01-08T21:51:39.925Z,96582.00
2023-01-08T21:53:43.030Z,96580.38
2023-01-08T21:55:47.565Z,96581.03
2023-01-08T21:57:50.981Z,96568.16
2023-01-08T21:59:54.693Z,96569.69
2023-01-08T22:01:57.988Z,96570.34
2023-01-08T22:04:01.210Z,96566.75
2023-01-08T22:06:06.409Z,96555.53
2023-01-08T22:08:14.100Z,96552.94
2023-01-08T22:10:17.869Z,96549.50
2023-01-08T22:12:23.730Z,96549.13
2023-01-08T22:14:27.127Z,96546.09
2023-01-08T22:16:30.233Z,96547.75
2023-01-08T22:18:33.743Z,96533.91
2023-01-08T22:20:36.757Z,96527.19
2023-01-08T22:22:41.159Z,96528.69
2023-01-08T22:24:44.305Z,96523.50
2023-01-08T22:26:48.634Z,96527.56
2023-01-08T22:28:53.098Z,96521.69
2023-01-08T22:30:56.781Z,96521.69
2023-01-08T22:32:59.962Z,96528.97
2023-01-08T22:35:03.008Z,96525.25
2023-01-08T22:37:06.329Z,96515.53
2023-01-08T22:39:09.411Z,96523.22
2023-01-08T22:41:16.910Z,96522.94
2023-01-08T22:43:20.020Z,96517.16
2023-01-08T22:45:24.489Z,96523.78
2023-01-08T22:47:27.610Z,96527.47
2023-01-08T22:49:30.640Z,96522.25
2023-01-08T22:51:33.824Z,96522.41
2023-01-08T22:53:36.941Z,96525.66
2023-01-08T22:55:41.612Z,96531.03
2023-01-08T22:57:44.682Z,96521.88
2023-01-08T22:59:47.886Z,96520.22
2023-01-08T23:01:52.429Z,96521.88
2023-01-08T23:03:58.436Z,96510.03
2023-01-08T23:06:02.490Z,96519.06
2023-01-08T23:08:05.793Z,96521.28
2023-01-08T23:10:10.954Z,96518.00
2023-01-08T23:12:14.354Z,96515.97
2023-01-08T23:14:17.395Z,96510.75
2023-01-08T23:16:24.389Z,96513.91
2023-01-08T23:18:29.356Z,96505.56
2023-01-08T23:20:32.522Z,96501.44
2023-01-08T23:22:36.574Z,96499.66
2023-01-08T23:24:39.681Z,96501.44
2023-01-08T23:26:42.851Z,96500.22
2023-01-08T23:28:45.938Z,96499.41
2023-01-08T23:30:49.021Z,96494.03
2023-01-08T23:32:52.170Z,96497.75
2023-01-08T23:34:57.028Z,96491.69
2023-01-08T23:37:00.147Z,96483.22
2023-01-08T23:39:03.193Z,96479.81
2023-01-08T23:41:07.482Z,96479.69
2023-01-08T23:43:10.528Z,96478.56
2023-01-08T23:45:13.592Z,96477.88
2023-01-08T23:47:16.869Z,96471.72
2023-01-08T23:49:19.865Z,96467.22
2023-01-08T23:51:24.567Z,96466.81
2023-01-08T23:53:27.942Z,96464.06
2023-01-08T23:55:31.112Z,96463.25
2023-01-08T23:57:34.201Z,96464.75
2023-01-08T23:59:37.423Z,96469.13
